createdAt,value
2018-07-24T00:01:08.192Z,64.70
2018-07-24T00:03:36.246Z,64.70
2018-07-24T00:06:04.313Z,64.30
2018-07-24T00:08:32.441Z,64.10
2018-07-24T00:11:00.554Z,63.90
2018-07-24T00:13:28.607Z,64.40
2018-07-24T00:15:56.727Z,64.60
2018-07-24T00:18:24.807Z,65.20
2018-07-24T00:20:52.921Z,65.60
2018-07-24T00:23:20.989Z,65.80
2018-07-24T00:25:49.068Z,66.30
2018-07-24T00:28:17.132Z,66.20
2018-07-24T00:30:45.254Z,66.20
2018-07-24T00:33:13.430Z,66.60
2018-07-24T00:35:41.477Z,66.60
2018-07-24T00:38:09.559Z,66.60
2018-07-24T00:40:37.689Z,66.30
2018-07-24T00:43:05.764Z,67.30
2018-07-24T00:45:33.966Z,67.40
2018-07-24T00:48:02.080Z,67.80
2018-07-24T00:50:30.145Z,67.90
2018-07-24T00:52:58.206Z,68.00
2018-07-24T00:55:26.330Z,68.20
2018-07-24T00:57:54.590Z,68.40
2018-07-24T01:00:22.695Z,68.50
2018-07-24T01:02:50.766Z,68.30
2018-07-24T01:05:18.829Z,68.30
2018-07-24T01:07:46.890Z,68.10
2018-07-24T01:10:15.014Z,68.60
2018-07-24T01:12:43.075Z,69.40
2018-07-24T01:15:11.124Z,69.50
2018-07-24T01:17:39.332Z,69.20
2018-07-24T01:20:07.436Z,69.20
2018-07-24T01:22:35.521Z,69.40
2018-07-24T01:25:03.661Z,69.20
2018-07-24T01:27:31.748Z,69.20
2018-07-24T01:29:59.795Z,69.40
2018-07-24T01:32:27.854Z,69.00
2018-07-24T01:34:55.975Z,68.80
2018-07-24T01:37:24.112Z,70.10
2018-07-24T01:39:52.212Z,69.50
2018-07-24T01:42:20.281Z,69.40
2018-07-24T01:44:48.358Z,69.90
2018-07-24T01:47:16.439Z,69.80
2018-07-24T01:49:44.520Z,70.20
2018-07-24T01:52:12.619Z,70.30
2018-07-24T01:54:40.708Z,70.50
2018-07-24T01:57:08.799Z,70.70
2018-07-24T01:59:36.851Z,70.70
2018-07-24T02:02:04.914Z,71.10
2018-07-24T02:04:33.020Z,70.90
2018-07-24T02:07:01.100Z,71.10
2018-07-24T02:11:57.044Z,71.50
2018-07-24T02:14:25.106Z,71.80
2018-07-24T02:16:53.210Z,72.00
2018-07-24T02:19:21.309Z,72.80
2018-07-24T02:21:49.494Z,72.70
2018-07-24T02:24:17.589Z,73.30
2018-07-24T02:26:45.686Z,73.40
2018-07-24T02:29:13.799Z,73.10
2018-07-24T02:31:41.875Z,73.10
2018-07-24T02:34:09.924Z,73.10
2018-07-24T02:36:38.048Z,73.00
2018-07-24T02:39:08.985Z,73.30
2018-07-24T02:41:37.094Z,74.00
2018-07-24T02:44:05.179Z,74.00
2018-07-24T02:46:33.232Z,73.90
2018-07-24T02:49:01.306Z,74.30
2018-07-24T02:51:29.404Z,74.40
2018-07-24T02:53:57.536Z,74.60
2018-07-24T02:56:25.625Z,74.40
2018-07-24T02:58:53.740Z,74.60
2018-07-24T03:01:21.790Z,75.30
2018-07-24T03:03:49.906Z,74.80
2018-07-24T03:06:18.009Z,75.50
2018-07-24T03:08:46.115Z,75.50
2018-07-24T03:11:14.224Z,75.00
2018-07-24T03:13:42.347Z,75.10
2018-07-24T03:16:10.484Z,75.20
2018-07-24T03:18:38.567Z,75.00
2018-07-24T03:21:06.677Z,74.50
2018-07-24T03:23:34.805Z,74.10
2018-07-24T03:26:02.968Z,74.00
2018-07-24T03:28:31.067Z,74.20
2018-07-24T03:30:59.103Z,74.30
2018-07-24T03:33:27.166Z,74.20
2018-07-24T03:35:55.248Z,74.60
2018-07-24T03:38:23.347Z,74.70
2018-07-24T03:40:51.403Z,75.00
2018-07-24T03:43:19.480Z,75.40
2018-07-24T03:45:47.576Z,75.50
2018-07-24T03:48:15.688Z,75.60
2018-07-24T03:50:43.725Z,75.60
2018-07-24T03:53:11.942Z,75.90
2018-07-24T03:55:40.077Z,76.50
2018-07-24T03:58:08.246Z,76.30
2018-07-24T04:00:36.295Z,76.20
2018-07-24T04:03:04.382Z,76.30
2018-07-24T04:05:32.455Z,76.10
2018-07-24T04:08:00.546Z,76.10
2018-07-24T04:10:28.606Z,76.10
2018-07-24T04:12:56.700Z,75.80
2018-07-24T04:15:24.787Z,75.60
2018-07-24T04:20:20.870Z,75.30
2018-07-24T04:22:48.988Z,75.30
2018-07-24T04:25:17.056Z,75.30
2018-07-24T04:27:45.132Z,75.40
2018-07-24T04:30:13.211Z,75.40
2018-07-24T04:32:41.275Z,75.50
2018-07-24T04:35:09.339Z,75.40
2018-07-24T04:37:37.423Z,75.30
2018-07-24T04:40:05.792Z,75.30
2018-07-24T04:42:33.908Z,75.60
2018-07-24T04:45:01.999Z,75.40
2018-07-24T04:47:30.099Z,75.20
2018-07-24T04:49:58.256Z,75.20
2018-07-24T04:52:26.387Z,75.10
2018-07-24T04:54:54.492Z,75.10
2018-07-24T04:57:22.670Z,74.80
2018-07-24T04:59:50.763Z,74.40
2018-07-24T05:02:25.328Z,74.30
2018-07-24T05:04:53.431Z,74.10
2018-07-24T05:07:21.564Z,73.70
2018-07-24T05:09:49.684Z,73.80
2018-07-24T05:12:17.763Z,73.30
2018-07-24T05:14:45.854Z,73.20
2018-07-24T05:17:14.049Z,72.80
2018-07-24T05:19:42.191Z,73.20
2018-07-24T05:22:10.331Z,73.10
2018-07-24T05:24:38.427Z,72.90
2018-07-24T05:27:06.518Z,71.90
2018-07-24T05:29:34.639Z,70.80
2018-07-24T05:32:02.740Z,70.00
2018-07-24T05:34:30.887Z,69.00
2018-07-24T05:36:58.999Z,68.00
2018-07-24T05:39:27.131Z,67.40
2018-07-24T05:41:55.344Z,67.40
2018-07-24T05:44:23.425Z,66.80
2018-07-24T05:46:51.497Z,66.50
2018-07-24T05:51:47.474Z,65.60
2018-07-24T05:54:15.582Z,65.50
2018-07-24T05:56:43.663Z,64.80
2018-07-24T05:59:11.973Z,64.60
2018-07-24T06:01:40.245Z,63.10
2018-07-24T06:06:36.246Z,60.30
2018-07-24T06:09:06.730Z,59.60
2018-07-24T06:11:41.625Z,58.90
2018-07-24T06:14:09.758Z,58.90
2018-07-24T06:16:37.882Z,58.70
2018-07-24T06:19:06.078Z,58.60
2018-07-24T06:21:34.158Z,58.40
2018-07-24T06:24:02.290Z,58.60
2018-07-24T06:26:30.480Z,58.70
2018-07-24T06:33:54.417Z,58.70
2018-07-24T06:36:22.511Z,58.60
2018-07-24T06:38:50.609Z,58.20
2018-07-24T06:41:18.683Z,58.30
2018-07-24T06:43:46.752Z,57.90
2018-07-24T06:46:14.840Z,57.90
2018-07-24T06:48:42.951Z,57.90
2018-07-24T06:51:11.086Z,57.60
2018-07-24T06:53:39.138Z,57.50
2018-07-24T06:56:07.228Z,57.90
2018-07-24T06:58:35.350Z,57.60
2018-07-24T07:01:03.492Z,57.40
2018-07-24T07:03:31.558Z,57.20
2018-07-24T07:05:59.639Z,57.20
2018-07-24T07:08:27.738Z,56.70
2018-07-24T07:10:55.921Z,55.60
2018-07-24T07:13:24.025Z,54.50
2018-07-24T07:15:52.124Z,54.00
2018-07-24T07:18:20.206Z,54.00
2018-07-24T07:20:48.266Z,53.90
2018-07-24T07:23:16.376Z,53.40
2018-07-24T07:25:44.511Z,53.50
2018-07-24T07:28:12.651Z,53.50
2018-07-24T07:30:40.768Z,53.30
2018-07-24T07:33:08.853Z,52.70
2018-07-24T07:35:36.946Z,53.00
2018-07-24T07:38:05.100Z,53.30
2018-07-24T07:40:33.269Z,52.00
2018-07-24T07:43:01.591Z,51.90
2018-07-24T07:45:29.684Z,50.70
2018-07-24T07:47:57.806Z,49.10
2018-07-24T07:50:25.985Z,49.50
2018-07-24T07:52:54.408Z,49.20
2018-07-24T07:55:22.727Z,48.60
2018-07-24T07:57:50.797Z,47.80
2018-07-24T08:00:19.118Z,46.50
2018-07-24T08:02:47.190Z,44.90
2018-07-24T08:05:15.389Z,43.70
2018-07-24T08:07:43.501Z,43.20
2018-07-24T08:10:11.983Z,42.40
2018-07-24T08:12:40.262Z,41.40
2018-07-24T08:15:08.359Z,41.90
2018-07-24T08:20:04.485Z,43.50
2018-07-24T08:22:32.598Z,44.00
2018-07-24T08:25:00.767Z,44.80
2018-07-24T08:29:56.851Z,46.00
2018-07-24T08:32:24.995Z,45.60
2018-07-24T08:34:53.122Z,46.00
2018-07-24T08:37:21.395Z,46.50
2018-07-24T08:39:49.543Z,46.00
2018-07-24T08:42:17.919Z,46.40
2018-07-24T08:44:46.085Z,46.20
2018-07-24T08:47:14.179Z,46.30
2018-07-24T08:49:42.239Z,46.50
2018-07-24T08:52:10.333Z,47.00
2018-07-24T08:54:38.724Z,47.40
2018-07-24T08:57:06.553Z,47.30
2018-07-24T08:59:34.652Z,47.30
2018-07-24T09:02:02.730Z,46.60
2018-07-24T09:04:30.799Z,47.00
2018-07-24T09:06:59.155Z,46.40
2018-07-24T09:09:27.276Z,46.80
2018-07-24T09:11:55.378Z,46.30
2018-07-24T09:14:23.454Z,46.70
2018-07-24T09:16:51.563Z,46.50
2018-07-24T09:19:19.632Z,46.60
2018-07-24T09:21:47.722Z,45.70
2018-07-24T09:24:15.868Z,45.60
2018-07-24T09:26:44.044Z,45.10
2018-07-24T09:29:12.177Z,45.50
2018-07-24T09:31:40.283Z,45.20
2018-07-24T09:34:08.470Z,45.10
2018-07-24T09:36:36.663Z,44.80
2018-07-24T09:39:07.731Z,43.80
2018-07-24T09:41:35.951Z,43.80
2018-07-24T09:44:04.020Z,43.70
2018-07-24T09:49:00.027Z,43.60
2018-07-24T09:51:28.100Z,44.10
2018-07-24T09:53:56.402Z,44.90
2018-07-24T09:56:24.553Z,44.10
2018-07-24T09:58:52.648Z,44.00
2018-07-24T10:03:54.387Z,44.60
2018-07-24T10:06:22.555Z,45.20
2018-07-24T10:08:50.653Z,45.70
2018-07-24T10:11:18.703Z,45.30
2018-07-24T10:13:46.779Z,44.90
2018-07-24T10:16:14.842Z,45.20
2018-07-24T10:18:42.975Z,44.90
2018-07-24T10:21:11.005Z,44.30
2018-07-24T10:23:39.177Z,43.80
2018-07-24T10:26:07.452Z,43.40
2018-07-24T10:28:35.639Z,44.30
2018-07-24T10:31:03.721Z,44.70
2018-07-24T10:33:31.843Z,44.30
2018-07-24T10:35:59.981Z,43.90
2018-07-24T10:40:56.007Z,42.50
2018-07-24T10:43:24.342Z,41.90
2018-07-24T10:45:53.003Z,41.50
2018-07-24T10:48:21.235Z,41.80
2018-07-24T10:50:49.366Z,41.80
2018-07-24T10:53:17.616Z,42.20
2018-07-24T10:55:45.715Z,42.30
2018-07-24T10:58:13.819Z,42.70
2018-07-24T11:00:43.051Z,42.90
2018-07-24T11:03:11.340Z,42.30
2018-07-24T11:05:39.576Z,42.50
2018-07-24T11:08:08.983Z,41.70
2018-07-24T11:10:37.110Z,41.90
2018-07-24T11:13:05.391Z,42.40
2018-07-24T11:15:33.488Z,42.80
2018-07-24T11:18:01.660Z,42.20
2018-07-24T11:20:29.799Z,42.60
2018-07-24T11:22:58.097Z,42.40
2018-07-24T11:25:26.200Z,42.40
2018-07-24T11:27:54.440Z,41.80
2018-07-24T11:30:22.534Z,42.00
2018-07-24T11:32:50.746Z,41.20
2018-07-24T11:35:18.827Z,41.10
2018-07-24T11:37:47.329Z,40.20
2018-07-24T11:40:15.514Z,40.90
2018-07-24T11:42:43.627Z,41.60
2018-07-24T11:45:11.718Z,42.10
2018-07-24T11:47:41.081Z,42.20
2018-07-24T11:50:09.385Z,42.60
2018-07-24T11:52:37.554Z,42.90
2018-07-24T11:55:06.407Z,43.30
2018-07-24T11:57:34.594Z,43.20
2018-07-24T12:00:02.696Z,42.50
2018-07-24T12:02:30.896Z,42.10
2018-07-24T12:04:59.015Z,41.20
2018-07-24T12:07:27.131Z,41.00
2018-07-24T12:09:55.258Z,41.30
2018-07-24T12:12:23.346Z,40.80
2018-07-24T12:14:51.480Z,40.90
2018-07-24T12:17:20.003Z,40.90
2018-07-24T12:19:48.526Z,41.00
2018-07-24T12:22:16.628Z,41.00
2018-07-24T12:24:45.015Z,40.80
2018-07-24T12:27:13.220Z,40.80
2018-07-24T12:32:09.540Z,40.50
2018-07-24T12:34:37.724Z,40.50
2018-07-24T12:37:06.157Z,40.70
2018-07-24T12:39:34.281Z,39.80
2018-07-24T12:42:02.628Z,39.50
2018-07-24T12:44:30.822Z,39.10
2018-07-24T12:47:00.011Z,39.30
2018-07-24T12:49:28.624Z,39.20
2018-07-24T12:54:24.622Z,40.30
2018-07-24T12:56:52.677Z,40.60
2018-07-24T12:59:20.810Z,40.70
2018-07-24T13:01:48.864Z,40.80
2018-07-24T13:04:17.019Z,40.50
2018-07-24T13:06:45.129Z,40.20
2018-07-24T13:09:14.312Z,40.40
2018-07-24T13:11:42.662Z,40.30
2018-07-24T13:14:10.776Z,40.10
2018-07-24T13:16:39.346Z,40.20
2018-07-24T13:19:07.490Z,40.00
2018-07-24T13:21:35.716Z,39.70
2018-07-24T13:26:32.427Z,39.30
2018-07-24T13:29:00.789Z,39.70
2018-07-24T13:31:29.026Z,39.90
2018-07-24T13:33:57.098Z,39.40
2018-07-24T13:36:25.302Z,39.70
2018-07-24T13:38:53.408Z,39.50
2018-07-24T13:41:21.880Z,39.60
2018-07-24T13:43:50.130Z,39.20
2018-07-24T13:46:18.585Z,39.40
2018-07-24T13:48:46.707Z,39.70
2018-07-24T13:51:14.972Z,40.10
2018-07-24T13:53:43.398Z,40.00
2018-07-24T13:56:11.534Z,39.70
2018-07-24T13:58:39.599Z,39.20
2018-07-24T14:01:07.839Z,39.90
2018-07-24T14:03:35.950Z,40.40
2018-07-24T14:06:04.066Z,40.80
2018-07-24T14:08:32.228Z,41.00
2018-07-24T14:11:00.319Z,40.40
2018-07-24T14:13:28.528Z,40.40
2018-07-24T14:15:56.618Z,40.70
2018-07-24T14:18:24.754Z,40.90
2018-07-24T14:20:52.856Z,41.10
2018-07-24T14:23:20.961Z,41.50
2018-07-24T14:25:49.095Z,40.60
2018-07-24T14:28:17.247Z,40.70
2018-07-24T14:30:45.344Z,41.10
2018-07-24T14:33:13.473Z,40.80
2018-07-24T14:35:41.655Z,40.60
2018-07-24T14:38:09.763Z,39.70
2018-07-24T14:40:37.949Z,39.40
2018-07-24T14:43:06.294Z,39.30
2018-07-24T14:45:35.543Z,38.90
2018-07-24T14:48:03.788Z,38.70
2018-07-24T14:50:31.939Z,39.20
2018-07-24T14:53:01.021Z,38.70
2018-07-24T14:55:29.921Z,38.40
2018-07-24T14:57:57.981Z,38.40
2018-07-24T15:00:26.415Z,38.90
2018-07-24T15:02:54.592Z,39.30
2018-07-24T15:05:22.781Z,39.50
2018-07-24T15:07:51.041Z,39.30
2018-07-24T15:10:19.199Z,38.90
2018-07-24T15:12:47.290Z,38.50
2018-07-24T15:15:15.519Z,38.30
2018-07-24T15:17:43.599Z,38.00
2018-07-24T15:20:11.875Z,38.30
2018-07-24T15:22:39.954Z,38.40
2018-07-24T15:25:08.165Z,38.10
2018-07-24T15:27:36.332Z,38.80
2018-07-24T15:30:05.924Z,38.00
2018-07-24T15:32:34.030Z,38.00
2018-07-24T15:35:02.237Z,37.80
2018-07-24T15:37:30.376Z,38.40
2018-07-24T15:39:58.536Z,38.80
2018-07-24T15:42:26.604Z,39.20
2018-07-24T15:44:54.733Z,39.50
2018-07-24T15:49:57.567Z,39.80
2018-07-24T15:52:25.671Z,39.80
2018-07-24T15:54:53.770Z,40.10
2018-07-24T15:57:21.859Z,40.00
2018-07-24T15:59:49.933Z,40.40
2018-07-24T16:02:18.057Z,40.40
2018-07-24T16:04:46.176Z,40.40
2018-07-24T16:07:14.360Z,39.90
2018-07-24T16:09:42.512Z,40.10
2018-07-24T16:12:10.928Z,40.00
2018-07-24T16:14:39.049Z,40.10
2018-07-24T16:17:07.342Z,40.60
2018-07-24T16:19:35.484Z,40.50
2018-07-24T16:22:03.818Z,40.70
2018-07-24T16:24:32.176Z,40.50
2018-07-24T16:27:00.416Z,41.20
2018-07-24T16:29:28.544Z,40.80
2018-07-24T16:31:56.732Z,40.50
2018-07-24T16:34:24.891Z,40.40
2018-07-24T16:39:20.986Z,40.60
2018-07-24T16:41:49.092Z,40.40
2018-07-24T16:44:17.174Z,40.70
2018-07-24T16:46:45.331Z,41.00
2018-07-24T16:49:13.450Z,41.00
2018-07-24T16:51:41.630Z,41.20
2018-07-24T16:54:09.752Z,41.20
2018-07-24T16:56:37.936Z,41.40
2018-07-24T16:59:06.350Z,41.90
2018-07-24T17:01:34.481Z,41.50
2018-07-24T17:04:02.605Z,41.80
2018-07-24T17:06:30.745Z,42.00
2018-07-24T17:08:58.801Z,42.10
2018-07-24T17:11:26.889Z,42.20
2018-07-24T17:13:55.073Z,42.00
2018-07-24T17:16:23.115Z,42.00
2018-07-24T17:18:51.308Z,42.20
2018-07-24T17:21:19.506Z,42.00
2018-07-24T17:23:47.758Z,42.30
2018-07-24T17:26:15.916Z,42.30
2018-07-24T17:28:44.097Z,41.90
2018-07-24T17:31:12.233Z,42.00
2018-07-24T17:33:40.375Z,42.50
2018-07-24T17:36:08.492Z,42.70
2018-07-24T17:38:36.693Z,43.00
2018-07-24T17:41:04.837Z,42.70
2018-07-24T17:43:32.966Z,42.80
2018-07-24T17:46:01.206Z,42.70
2018-07-24T17:48:29.427Z,42.70
2018-07-24T17:53:25.604Z,42.70
2018-07-24T17:55:53.802Z,42.70
2018-07-24T17:58:22.117Z,42.80
2018-07-24T18:00:50.265Z,42.80
2018-07-24T18:03:18.486Z,43.00
2018-07-24T18:08:14.658Z,43.10
2018-07-24T18:10:43.576Z,43.00
2018-07-24T18:13:11.729Z,43.10
2018-07-24T18:15:39.822Z,43.10
2018-07-24T18:18:07.938Z,43.30
2018-07-24T18:23:04.129Z,43.40
2018-07-24T18:25:32.292Z,43.50
2018-07-24T18:28:00.423Z,44.00
2018-07-24T18:30:28.552Z,44.50
2018-07-24T18:32:56.659Z,44.80
2018-07-24T18:35:24.808Z,44.80
2018-07-24T18:37:52.909Z,45.10
2018-07-24T18:40:20.990Z,45.30
2018-07-24T18:45:17.594Z,45.70
2018-07-24T18:47:45.765Z,46.00
2018-07-24T18:50:13.883Z,46.30
2018-07-24T18:52:42.049Z,46.60
2018-07-24T18:55:10.266Z,47.00
2018-07-24T18:57:38.563Z,47.40
2018-07-24T19:00:06.752Z,47.50
2018-07-24T19:02:34.921Z,47.60
2018-07-24T19:05:03.088Z,48.10
2018-07-24T19:07:31.213Z,48.30
2018-07-24T19:09:59.354Z,48.50
2018-07-24T19:12:27.489Z,48.70
2018-07-24T19:14:55.666Z,48.90
2018-07-24T19:17:24.125Z,49.30
2018-07-24T19:19:52.237Z,49.60
2018-07-24T19:22:20.359Z,49.60
2018-07-24T19:24:48.500Z,49.70
2018-07-24T19:27:16.634Z,49.90
2018-07-24T19:29:44.837Z,50.20
2018-07-24T19:32:12.956Z,50.40
2018-07-24T19:34:41.056Z,50.70
2018-07-24T19:42:05.083Z,51.10
2018-07-24T19:44:34.425Z,51.50
2018-07-24T19:47:04.684Z,52.00
2018-07-24T19:49:33.001Z,52.30
2018-07-24T19:52:01.059Z,52.30
2018-07-24T19:54:29.172Z,52.30
2018-07-24T19:56:57.270Z,52.50
2018-07-24T19:59:25.448Z,52.80
2018-07-24T20:01:53.738Z,52.90
2018-07-24T20:04:21.826Z,53.10
2018-07-24T20:06:50.318Z,53.20
2018-07-24T20:09:18.525Z,53.50
2018-07-24T20:11:46.653Z,53.80
2018-07-24T20:14:14.996Z,54.10
2018-07-24T20:16:44.729Z,54.30
2018-07-24T20:19:12.883Z,54.50
2018-07-24T20:21:41.249Z,54.60
2018-07-24T20:24:10.894Z,54.60
2018-07-24T20:26:39.193Z,54.80
2018-07-24T20:29:07.355Z,54.90
2018-07-24T20:31:35.518Z,55.00
2018-07-24T20:34:03.667Z,55.40
2018-07-24T20:36:31.780Z,55.60
2018-07-24T20:41:28.014Z,55.90
2018-07-24T20:43:56.239Z,55.60
2018-07-24T20:46:24.342Z,55.40
2018-07-24T20:48:52.462Z,55.60
2018-07-24T20:51:20.590Z,55.60
2018-07-24T20:53:48.708Z,55.40
2018-07-24T20:56:16.878Z,55.50
2018-07-24T20:58:45.015Z,55.50
2018-07-24T21:01:13.159Z,55.60
2018-07-24T21:03:41.282Z,55.60
2018-07-24T21:06:09.371Z,56.40
2018-07-24T21:08:37.544Z,55.80
2018-07-24T21:11:05.651Z,55.90
2018-07-24T21:13:33.831Z,56.40
2018-07-24T21:16:01.952Z,56.10
2018-07-24T21:18:30.204Z,56.10
2018-07-24T21:20:58.348Z,56.60
2018-07-24T21:23:26.473Z,56.60
2018-07-24T21:25:54.650Z,56.90
2018-07-24T21:28:22.762Z,57.10
2018-07-24T21:30:50.908Z,57.00
2018-07-24T21:33:19.090Z,57.20
2018-07-24T21:35:47.240Z,57.20
2018-07-24T21:38:15.466Z,57.30
2018-07-24T21:40:43.565Z,57.60
2018-07-24T21:43:11.689Z,58.20
2018-07-24T21:45:39.833Z,58.60
2018-07-24T21:48:07.971Z,58.60
2018-07-24T21:50:36.084Z,59.10
2018-07-24T21:53:04.236Z,59.00
2018-07-24T21:55:32.328Z,59.10
2018-07-24T21:58:00.426Z,59.10
2018-07-24T22:00:32.837Z,59.10
2018-07-24T22:03:00.948Z,59.00
2018-07-24T22:05:29.131Z,58.90
2018-07-24T22:07:57.248Z,58.70
2018-07-24T22:10:25.497Z,58.60
2018-07-24T22:12:53.936Z,58.40
2018-07-24T22:15:23.879Z,58.40
2018-07-24T22:17:52.664Z,58.60
2018-07-24T22:20:21.017Z,58.50
2018-07-24T22:22:49.681Z,58.60
2018-07-24T22:27:46.093Z,59.00
2018-07-24T22:30:14.222Z,59.40
2018-07-24T22:32:42.383Z,59.60
2018-07-24T22:35:11.953Z,59.60
2018-07-24T22:37:40.167Z,59.50
2018-07-24T22:40:10.055Z,59.40
2018-07-24T22:42:38.163Z,59.40
2018-07-24T22:47:34.561Z,59.50
2018-07-24T22:50:02.765Z,59.70
2018-07-24T22:52:30.845Z,59.70
2018-07-24T22:54:58.926Z,60.00
2018-07-24T22:59:55.152Z,60.60
2018-07-24T23:02:23.243Z,60.60
2018-07-24T23:04:51.384Z,60.20
2018-07-24T23:07:19.446Z,60.00
2018-07-24T23:09:47.571Z,60.00
2018-07-24T23:12:15.642Z,60.20
2018-07-24T23:14:43.791Z,60.20
2018-07-24T23:17:11.912Z,60.40
2018-07-24T23:19:40.032Z,60.50
2018-07-24T23:22:08.143Z,60.70
2018-07-24T23:24:36.328Z,61.20
2018-07-24T23:27:04.402Z,61.50
2018-07-24T23:29:32.512Z,62.00
2018-07-24T23:32:00.645Z,62.20
2018-07-24T23:34:28.747Z,62.50
2018-07-24T23:36:56.861Z,62.90
2018-07-24T23:39:24.944Z,63.30
2018-07-24T23:41:53.106Z,63.30
2018-07-24T23:44:21.216Z,63.50
2018-07-24T23:46:49.366Z,63.80
2018-07-24T23:49:17.432Z,63.90
2018-07-24T23:51:45.593Z,64.40
2018-07-24T23:54:13.683Z,64.60
2018-07-24T23:56:41.858Z,64.80
2018-07-24T23:59:09.967Z,64.80
